sensor_id;sensor_type;location;lat;lon;timestamp;temperature;humidity
5870;DHT22;2961;47.702;9.410;2022-07-01T00:00:12;15.80;99.90
5870;DHT22;2961;47.702;9.410;2022-07-01T00:02:39;15.80;99.90
5870;DHT22;2961;47.702;9.410;2022-07-01T00:05:07;15.80;99.90
5870;DHT22;2961;47.702;9.410;2022-07-01T00:07:34;15.80;99.90
5870;DHT22;2961;47.702;9.410;2022-07-01T00:10:01;15.70;99.90
5870;DHT22;2961;47.702;9.410;2022-07-01T00:12:27;15.70;99.90
5870;DHT22;2961;47.702;9.410;2022-07-01T00:14:56;15.70;99.90
5870;DHT22;2961;47.702;9.410;2022-07-01T00:17:23;15.70;99.90
5870;DHT22;2961;47.702;9.410;2022-07-01T00:19:49;15.70;99.90
5870;DHT22;2961;47.702;9.410;2022-07-01T00:22:16;15.70;99.90
5870;DHT22;2961;47.702;9.410;2022-07-01T00:24:43;15.70;99.90
5870;DHT22;2961;47.702;9.410;2022-07-01T00:27:11;15.60;99.90
5870;DHT22;2961;47.702;9.410;2022-07-01T00:29:39;15.60;99.90
5870;DHT22;2961;47.702;9.410;2022-07-01T00:32:07;15.50;99.90
5870;DHT22;2961;47.702;9.410;2022-07-01T00:34:35;15.50;99.90
5870;DHT22;2961;47.702;9.410;2022-07-01T00:37:03;15.50;99.90
5870;DHT22;2961;47.702;9.410;2022-07-01T00:39:29;15.50;99.90
5870;DHT22;2961;47.702;9.410;2022-07-01T00:41:59;15.50;99.90
5870;DHT22;2961;47.702;9.410;2022-07-01T00:44:26;15.50;99.90
5870;DHT22;2961;47.702;9.410;2022-07-01T00:46:54;15.50;99.90
5870;DHT22;2961;47.702;9.410;2022-07-01T00:49:23;15.40;99.90
5870;DHT22;2961;47.702;9.410;2022-07-01T00:51:51;15.40;99.90
5870;DHT22;2961;47.702;9.410;2022-07-01T00:54:18;15.40;99.90
5870;DHT22;2961;47.702;9.410;2022-07-01T00:56:46;15.40;99.90
5870;DHT22;2961;47.702;9.410;2022-07-01T00:59:14;15.40;99.90
5870;DHT22;2961;47.702;9.410;2022-07-01T01:01:41;15.50;99.90
5870;DHT22;2961;47.702;9.410;2022-07-01T01:04:08;15.40;99.90
5870;DHT22;2961;47.702;9.410;2022-07-01T01:06:36;15.30;99.90
5870;DHT22;2961;47.702;9.410;2022-07-01T01:09:03;15.30;99.90
5870;DHT22;2961;47.702;9.410;2022-07-01T01:11:30;15.30;99.90
5870;DHT22;2961;47.702;9.410;2022-07-01T01:13:57;15.30;99.90
5870;DHT22;2961;47.702;9.410;2022-07-01T01:16:24;15.30;99.90
5870;DHT22;2961;47.702;9.410;2022-07-01T01:18:52;15.40;99.90
5870;DHT22;2961;47.702;9.410;2022-07-01T01:21:20;15.40;99.90
5870;DHT22;2961;47.702;9.410;2022-07-01T01:23:50;15.30;99.90
5870;DHT22;2961;47.702;9.410;2022-07-01T01:26:19;15.20;99.90
5870;DHT22;2961;47.702;9.410;2022-07-01T01:28:47;15.10;99.90
5870;DHT22;2961;47.702;9.410;2022-07-01T01:31:14;15.10;99.90
5870;DHT22;2961;47.702;9.410;2022-07-01T01:33:41;15.10;99.90
5870;DHT22;2961;47.702;9.410;2022-07-01T01:36:08;15.10;99.90
5870;DHT22;2961;47.702;9.410;2022-07-01T01:38:37;15.20;99.90
5870;DHT22;2961;47.702;9.410;2022-07-01T01:41:04;15.10;99.90
5870;DHT22;2961;47.702;9.410;2022-07-01T01:43:31;15.20;99.90
5870;DHT22;2961;47.702;9.410;2022-07-01T01:46:00;15.10;99.90
5870;DHT22;2961;47.702;9.410;2022-07-01T01:48:28;15.10;99.90
5870;DHT22;2961;47.702;9.410;2022-07-01T01:50:55;15.00;99.90
5870;DHT22;2961;47.702;9.410;2022-07-01T01:53:22;14.90;99.90
5870;DHT22;2961;47.702;9.410;2022-07-01T01:55:50;14.80;99.90
5870;DHT22;2961;47.702;9.410;2022-07-01T01:58:17;14.80;99.90
5870;DHT22;2961;47.702;9.410;2022-07-01T02:00:44;14.90;99.90
5870;DHT22;2961;47.702;9.410;2022-07-01T02:03:10;15.10;99.90
5870;DHT22;2961;47.702;9.410;2022-07-01T02:05:37;15.20;99.90
5870;DHT22;2961;47.702;9.410;2022-07-01T02:08:04;15.20;99.90
5870;DHT22;2961;47.702;9.410;2022-07-01T02:10:31;15.20;99.90
5870;DHT22;2961;47.702;9.410;2022-07-01T02:12:59;15.20;99.90
5870;DHT22;2961;47.702;9.410;2022-07-01T02:15:26;15.20;99.90
5870;DHT22;2961;47.702;9.410;2022-07-01T02:17:53;15.20;99.90
5870;DHT22;2961;47.702;9.410;2022-07-01T02:20:22;15.20;99.90
5870;DHT22;2961;47.702;9.410;2022-07-01T02:22:49;15.20;99.90
5870;DHT22;2961;47.702;9.410;2022-07-01T02:25:17;15.20;99.90
5870;DHT22;2961;47.702;9.410;2022-07-01T02:27:45;15.20;99.90
5870;DHT22;2961;47.702;9.410;2022-07-01T02:30:13;15.20;99.90
5870;DHT22;2961;47.702;9.410;2022-07-01T02:32:40;15.20;99.90
5870;DHT22;2961;47.702;9.410;2022-07-01T02:35:08;15.20;99.90
5870;DHT22;2961;47.702;9.410;2022-07-01T02:37:36;15.20;99.90
5870;DHT22;2961;47.702;9.410;2022-07-01T02:40:03;15.20;99.90
5870;DHT22;2961;47.702;9.410;2022-07-01T02:42:30;15.30;99.90
5870;DHT22;2961;47.702;9.410;2022-07-01T02:45:01;15.30;99.90
5870;DHT22;2961;47.702;9.410;2022-07-01T02:47:33;15.20;99.90
5870;DHT22;2961;47.702;9.410;2022-07-01T02:50:01;15.20;99.90
5870;DHT22;2961;47.702;9.410;2022-07-01T02:52:28;15.20;99.90
5870;DHT22;2961;47.702;9.410;2022-07-01T02:54:55;15.10;99.90
5870;DHT22;2961;47.702;9.410;2022-07-01T02:57:22;15.00;99.90
5870;DHT22;2961;47.702;9.410;2022-07-01T02:59:49;15.10;99.90
5870;DHT22;2961;47.702;9.410;2022-07-01T03:02:17;15.20;99.90
5870;DHT22;2961;47.702;9.410;2022-07-01T03:04:46;15.20;99.90
5870;DHT22;2961;47.702;9.410;2022-07-01T03:07:13;15.20;99.90
5870;DHT22;2961;47.702;9.410;2022-07-01T03:09:40;15.20;99.90
5870;DHT22;2961;47.702;9.410;2022-07-01T03:12:07;15.30;99.90
5870;DHT22;2961;47.702;9.410;2022-07-01T03:14:48;15.30;99.90
5870;DHT22;2961;47.702;9.410;2022-07-01T03:17:15;15.30;99.90
5870;DHT22;2961;47.702;9.410;2022-07-01T03:19:41;15.30;99.90
5870;DHT22;2961;47.702;9.410;2022-07-01T03:22:10;15.20;99.90
5870;DHT22;2961;47.702;9.410;2022-07-01T03:24:36;15.30;99.90
5870;DHT22;2961;47.702;9.410;2022-07-01T03:27:04;15.30;99.90
5870;DHT22;2961;47.702;9.410;2022-07-01T03:29:30;15.20;99.90
5870;DHT22;2961;47.702;9.410;2022-07-01T03:31:57;15.10;99.90
5870;DHT22;2961;47.702;9.410;2022-07-01T03:34:24;15.00;99.90
5870;DHT22;2961;47.702;9.410;2022-07-01T03:36:51;15.00;99.90
5870;DHT22;2961;47.702;9.410;2022-07-01T03:39:20;15.00;99.90
5870;DHT22;2961;47.702;9.410;2022-07-01T03:41:46;14.90;99.90
5870;DHT22;2961;47.702;9.410;2022-07-01T03:44:13;14.90;99.90
5870;DHT22;2961;47.702;9.410;2022-07-01T03:46:40;14.90;99.90
5870;DHT22;2961;47.702;9.410;2022-07-01T03:49:07;14.80;99.90
5870;DHT22;2961;47.702;9.410;2022-07-01T03:51:34;14.70;99.90
5870;DHT22;2961;47.702;9.410;2022-07-01T03:54:00;14.70;99.90
5870;DHT22;2961;47.702;9.410;2022-07-01T03:56:46;14.60;99.90
5870;DHT22;2961;47.702;9.410;2022-07-01T03:59:13;14.60;99.90
5870;DHT22;2961;47.702;9.410;2022-07-01T04:01:40;14.60;99.90
5870;DHT22;2961;47.702;9.410;2022-07-01T04:04:06;14.50;99.90
5870;DHT22;2961;47.702;9.410;2022-07-01T04:06:33;14.50;99.90
5870;DHT22;2961;47.702;9.410;2022-07-01T04:09:01;14.50;99.90
5870;DHT22;2961;47.702;9.410;2022-07-01T04:11:28;14.50;99.90
5870;DHT22;2961;47.702;9.410;2022-07-01T04:13:56;14.50;99.90
5870;DHT22;2961;47.702;9.410;2022-07-01T04:16:23;14.40;99.90
5870;DHT22;2961;47.702;9.410;2022-07-01T04:18:52;14.50;99.90
5870;DHT22;2961;47.702;9.410;2022-07-01T04:21:18;14.50;99.90
5870;DHT22;2961;47.702;9.410;2022-07-01T04:24:03;14.50;99.90
5870;DHT22;2961;47.702;9.410;2022-07-01T04:26:30;14.40;99.90
5870;DHT22;2961;47.702;9.410;2022-07-01T04:28:59;14.40;99.90
5870;DHT22;2961;47.702;9.410;2022-07-01T04:31:26;14.40;99.90
5870;DHT22;2961;47.702;9.410;2022-07-01T04:33:53;14.40;99.90
5870;DHT22;2961;47.702;9.410;2022-07-01T04:36:20;14.30;99.90
5870;DHT22;2961;47.702;9.410;2022-07-01T04:38:47;14.30;99.90
5870;DHT22;2961;47.702;9.410;2022-07-01T04:41:14;14.20;99.90
5870;DHT22;2961;47.702;9.410;2022-07-01T04:43:59;14.10;99.90
5870;DHT22;2961;47.702;9.410;2022-07-01T04:46:26;14.10;99.90
5870;DHT22;2961;47.702;9.410;2022-07-01T04:48:53;14.10;99.90
5870;DHT22;2961;47.702;9.410;2022-07-01T04:51:20;14.00;99.90
5870;DHT22;2961;47.702;9.410;2022-07-01T04:53:47;13.90;99.90
5870;DHT22;2961;47.702;9.410;2022-07-01T04:56:15;13.90;99.90
5870;DHT22;2961;47.702;9.410;2022-07-01T04:58:42;13.90;99.90
5870;DHT22;2961;47.702;9.410;2022-07-01T05:01:10;13.90;99.90
5870;DHT22;2961;47.702;9.410;2022-07-01T05:03:37;13.90;99.90
5870;DHT22;2961;47.702;9.410;2022-07-01T05:06:04;13.90;99.90
5870;DHT22;2961;47.702;9.410;2022-07-01T05:08:31;13.80;99.90
5870;DHT22;2961;47.702;9.410;2022-07-01T05:10:58;13.80;99.90
5870;DHT22;2961;47.702;9.410;2022-07-01T05:13:25;13.70;99.90
5870;DHT22;2961;47.702;9.410;2022-07-01T05:15:52;13.70;99.90
5870;DHT22;2961;47.702;9.410;2022-07-01T05:18:20;13.60;99.90
5870;DHT22;2961;47.702;9.410;2022-07-01T05:21:04;13.60;99.90
5870;DHT22;2961;47.702;9.410;2022-07-01T05:23:48;13.70;99.90
5870;DHT22;2961;47.702;9.410;2022-07-01T05:26:15;13.80;99.90
5870;DHT22;2961;47.702;9.410;2022-07-01T05:28:42;13.70;99.90
5870;DHT22;2961;47.702;9.410;2022-07-01T05:31:10;13.70;99.90
5870;DHT22;2961;47.702;9.410;2022-07-01T05:33:38;13.70;99.90
5870;DHT22;2961;47.702;9.410;2022-07-01T05:36:05;13.70;99.90
5870;DHT22;2961;47.702;9.410;2022-07-01T05:38:32;13.80;99.90
5870;DHT22;2961;47.702;9.410;2022-07-01T05:40:59;13.70;99.90
5870;DHT22;2961;47.702;9.410;2022-07-01T05:43:26;13.80;99.90
5870;DHT22;2961;47.702;9.410;2022-07-01T05:45:53;13.80;99.90
5870;DHT22;2961;47.702;9.410;2022-07-01T05:48:19;13.80;99.90
5870;DHT22;2961;47.702;9.410;2022-07-01T05:50:47;13.80;99.90
5870;DHT22;2961;47.702;9.410;2022-07-01T05:53:15;13.80;99.90
5870;DHT22;2961;47.702;9.410;2022-07-01T05:55:42;13.80;99.90
5870;DHT22;2961;47.702;9.410;2022-07-01T05:58:10;13.80;99.90
5870;DHT22;2961;47.702;9.410;2022-07-01T06:00:38;13.80;99.90
5870;DHT22;2961;47.702;9.410;2022-07-01T06:03:07;13.80;99.90
5870;DHT22;2961;47.702;9.410;2022-07-01T06:05:33;13.80;99.90
5870;DHT22;2961;47.702;9.410;2022-07-01T06:08:02;13.80;99.90
5870;DHT22;2961;47.702;9.410;2022-07-01T06:10:29;13.80;99.90
5870;DHT22;2961;47.702;9.410;2022-07-01T06:12:55;13.80;99.90
5870;DHT22;2961;47.702;9.410;2022-07-01T06:15:22;13.90;99.90
5870;DHT22;2961;47.702;9.410;2022-07-01T06:17:49;13.90;99.90
5870;DHT22;2961;47.702;9.410;2022-07-01T06:20:17;14.00;99.90
5870;DHT22;2961;47.702;9.410;2022-07-01T06:22:44;14.00;99.90
5870;DHT22;2961;47.702;9.410;2022-07-01T06:25:12;14.00;99.90
5870;DHT22;2961;47.702;9.410;2022-07-01T06:27:40;14.00;99.90
5870;DHT22;2961;47.702;9.410;2022-07-01T06:30:08;14.10;99.90
5870;DHT22;2961;47.702;9.410;2022-07-01T06:32:35;14.20;99.90
5870;DHT22;2961;47.702;9.410;2022-07-01T06:35:02;14.30;99.90
5870;DHT22;2961;47.702;9.410;2022-07-01T06:37:28;14.30;99.90
5870;DHT22;2961;47.702;9.410;2022-07-01T06:39:58;14.20;99.90
5870;DHT22;2961;47.702;9.410;2022-07-01T06:42:26;14.30;99.90
5870;DHT22;2961;47.702;9.410;2022-07-01T06:44:53;14.10;99.90
5870;DHT22;2961;47.702;9.410;2022-07-01T06:47:20;14.10;99.90
5870;DHT22;2961;47.702;9.410;2022-07-01T06:49:47;14.10;99.90
5870;DHT22;2961;47.702;9.410;2022-07-01T06:52:13;14.00;99.90
5870;DHT22;2961;47.702;9.410;2022-07-01T06:54:40;14.00;99.90
5870;DHT22;2961;47.702;9.410;2022-07-01T06:57:08;14.00;99.90
5870;DHT22;2961;47.702;9.410;2022-07-01T06:59:36;14.00;99.90
5870;DHT22;2961;47.702;9.410;2022-07-01T07:02:03;13.90;99.90
5870;DHT22;2961;47.702;9.410;2022-07-01T07:04:32;13.90;99.90
5870;DHT22;2961;47.702;9.410;2022-07-01T07:07:00;13.80;99.90
5870;DHT22;2961;47.702;9.410;2022-07-01T07:09:26;13.80;99.90
5870;DHT22;2961;47.702;9.410;2022-07-01T07:11:53;13.80;99.90
5870;DHT22;2961;47.702;9.410;2022-07-01T07:14:20;13.80;99.90
5870;DHT22;2961;47.702;9.410;2022-07-01T07:16:48;13.80;99.90
5870;DHT22;2961;47.702;9.410;2022-07-01T07:19:16;13.80;99.90
5870;DHT22;2961;47.702;9.410;2022-07-01T07:21:43;13.80;99.90
5870;DHT22;2961;47.702;9.410;2022-07-01T07:24:10;13.80;99.90
5870;DHT22;2961;47.702;9.410;2022-07-01T07:26:37;13.90;99.90
5870;DHT22;2961;47.702;9.410;2022-07-01T07:29:03;14.00;99.90
5870;DHT22;2961;47.702;9.410;2022-07-01T07:31:30;13.90;99.90
5870;DHT22;2961;47.702;9.410;2022-07-01T07:33:59;13.90;99.90
5870;DHT22;2961;47.702;9.410;2022-07-01T07:36:26;13.90;99.90
5870;DHT22;2961;47.702;9.410;2022-07-01T07:38:53;13.90;99.90
5870;DHT22;2961;47.702;9.410;2022-07-01T07:41:19;13.90;99.90
5870;DHT22;2961;47.702;9.410;2022-07-01T07:43:46;13.80;99.90
5870;DHT22;2961;47.702;9.410;2022-07-01T07:46:14;13.80;99.90
5870;DHT22;2961;47.702;9.410;2022-07-01T07:48:41;13.80;99.90
5870;DHT22;2961;47.702;9.410;2022-07-01T07:51:10;14.00;99.90
5870;DHT22;2961;47.702;9.410;2022-07-01T07:53:40;13.80;99.90
5870;DHT22;2961;47.702;9.410;2022-07-01T07:56:07;13.80;99.90
5870;DHT22;2961;47.702;9.410;2022-07-01T07:58:34;13.80;99.90
5870;DHT22;2961;47.702;9.410;2022-07-01T08:01:02;13.90;99.90
5870;DHT22;2961;47.702;9.410;2022-07-01T08:03:28;14.00;99.90
5870;DHT22;2961;47.702;9.410;2022-07-01T08:05:55;14.00;99.90
5870;DHT22;2961;47.702;9.410;2022-07-01T08:08:23;14.00;99.90
5870;DHT22;2961;47.702;9.410;2022-07-01T08:10:50;14.00;99.90
5870;DHT22;2961;47.702;9.410;2022-07-01T08:13:17;14.00;99.90
5870;DHT22;2961;47.702;9.410;2022-07-01T08:15:44;13.90;99.90
5870;DHT22;2961;47.702;9.410;2022-07-01T08:18:11;13.90;99.90
5870;DHT22;2961;47.702;9.410;2022-07-01T08:20:37;13.90;99.90
5870;DHT22;2961;47.702;9.410;2022-07-01T08:23:04;13.90;99.90
5870;DHT22;2961;47.702;9.410;2022-07-01T08:25:32;13.90;99.90
5870;DHT22;2961;47.702;9.410;2022-07-01T08:27:59;13.90;99.90
5870;DHT22;2961;47.702;9.410;2022-07-01T08:30:26;13.80;99.90
5870;DHT22;2961;47.702;9.410;2022-07-01T08:32:53;13.80;99.90
5870;DHT22;2961;47.702;9.410;2022-07-01T08:35:19;13.90;99.90
5870;DHT22;2961;47.702;9.410;2022-07-01T08:37:46;14.00;99.90
5870;DHT22;2961;47.702;9.410;2022-07-01T08:40:13;14.10;99.90
5870;DHT22;2961;47.702;9.410;2022-07-01T08:42:41;14.20;99.90
5870;DHT22;2961;47.702;9.410;2022-07-01T08:45:09;14.20;99.90
5870;DHT22;2961;47.702;9.410;2022-07-01T08:47:49;14.30;99.90
5870;DHT22;2961;47.702;9.410;2022-07-01T08:50:16;14.40;99.90
5870;DHT22;2961;47.702;9.410;2022-07-01T08:52:43;14.40;99.90
5870;DHT22;2961;47.702;9.410;2022-07-01T08:55:10;14.50;99.90
5870;DHT22;2961;47.702;9.410;2022-07-01T08:57:37;14.50;99.90
5870;DHT22;2961;47.702;9.410;2022-07-01T09:00:07;14.40;99.90
5870;DHT22;2961;47.702;9.410;2022-07-01T09:02:50;14.40;99.90
5870;DHT22;2961;47.702;9.410;2022-07-01T09:05:17;14.50;99.90
5870;DHT22;2961;47.702;9.410;2022-07-01T09:07:44;14.40;99.90
5870;DHT22;2961;47.702;9.410;2022-07-01T09:10:15;14.30;99.90
5870;DHT22;2961;47.702;9.410;2022-07-01T09:12:43;14.30;99.90
5870;DHT22;2961;47.702;9.410;2022-07-01T09:15:22;14.30;99.90
5870;DHT22;2961;47.702;9.410;2022-07-01T09:17:52;14.40;99.90
5870;DHT22;2961;47.702;9.410;2022-07-01T09:20:29;14.40;99.90
5870;DHT22;2961;47.702;9.410;2022-07-01T09:23:04;14.50;99.90
5870;DHT22;2961;47.702;9.410;2022-07-01T09:25:34;14.50;99.90
5870;DHT22;2961;47.702;9.410;2022-07-01T09:28:07;14.50;99.90
5870;DHT22;2961;47.702;9.410;2022-07-01T09:30:37;14.50;99.90
5870;DHT22;2961;47.702;9.410;2022-07-01T09:33:12;14.60;99.90
5870;DHT22;2961;47.702;9.410;2022-07-01T09:35:39;14.60;99.90
5870;DHT22;2961;47.702;9.410;2022-07-01T09:38:10;14.60;99.90
5870;DHT22;2961;47.702;9.410;2022-07-01T09:40:47;14.50;99.90
5870;DHT22;2961;47.702;9.410;2022-07-01T09:43:16;14.50;99.90
5870;DHT22;2961;47.702;9.410;2022-07-01T09:45:52;14.50;99.90
5870;DHT22;2961;47.702;9.410;2022-07-01T09:48:19;14.40;99.90
5870;DHT22;2961;47.702;9.410;2022-07-01T09:50:46;14.50;99.90
5870;DHT22;2961;47.702;9.410;2022-07-01T09:53:13;14.50;99.90
5870;DHT22;2961;47.702;9.410;2022-07-01T09:55:40;14.60;99.90
5870;DHT22;2961;47.702;9.410;2022-07-01T09:58:07;14.60;99.90
5870;DHT22;2961;47.702;9.410;2022-07-01T10:00:35;14.60;99.90
5870;DHT22;2961;47.702;9.410;2022-07-01T10:03:05;14.60;99.90
5870;DHT22;2961;47.702;9.410;2022-07-01T10:05:37;14.70;99.90
5870;DHT22;2961;47.702;9.410;2022-07-01T10:08:19;14.70;99.90
5870;DHT22;2961;47.702;9.410;2022-07-01T10:10:51;14.70;99.90
5870;DHT22;2961;47.702;9.410;2022-07-01T10:13:24;14.80;99.90
5870;DHT22;2961;47.702;9.410;2022-07-01T10:15:52;14.80;99.90
5870;DHT22;2961;47.702;9.410;2022-07-01T10:18:22;14.90;99.90
5870;DHT22;2961;47.702;9.410;2022-07-01T10:20:49;14.80;99.90
5870;DHT22;2961;47.702;9.410;2022-07-01T10:23:19;14.80;99.90
5870;DHT22;2961;47.702;9.410;2022-07-01T10:25:47;14.80;99.90
5870;DHT22;2961;47.702;9.410;2022-07-01T10:28:17;14.80;99.90
5870;DHT22;2961;47.702;9.410;2022-07-01T10:30:52;14.90;99.90
5870;DHT22;2961;47.702;9.410;2022-07-01T10:33:38;14.80;99.90
5870;DHT22;2961;47.702;9.410;2022-07-01T10:36:06;14.70;99.90
5870;DHT22;2961;47.702;9.410;2022-07-01T10:38:35;14.70;99.90
5870;DHT22;2961;47.702;9.410;2022-07-01T10:41:27;14.70;99.90
5870;DHT22;2961;47.702;9.410;2022-07-01T10:43:54;14.60;99.90
5870;DHT22;2961;47.702;9.410;2022-07-01T10:46:41;14.40;99.90
5870;DHT22;2961;47.702;9.410;2022-07-01T10:49:10;14.40;99.90
5870;DHT22;2961;47.702;9.410;2022-07-01T10:51:45;14.40;99.90
5870;DHT22;2961;47.702;9.410;2022-07-01T10:54:12;14.30;99.90
5870;DHT22;2961;47.702;9.410;2022-07-01T10:56:40;14.40;99.90
5870;DHT22;2961;47.702;9.410;2022-07-01T10:59:08;14.30;99.90
5870;DHT22;2961;47.702;9.410;2022-07-01T11:01:44;14.40;99.90
5870;DHT22;2961;47.702;9.410;2022-07-01T11:04:11;14.40;99.90
5870;DHT22;2961;47.702;9.410;2022-07-01T11:06:37;14.30;99.90
5870;DHT22;2961;47.702;9.410;2022-07-01T11:09:04;14.30;99.90
5870;DHT22;2961;47.702;9.410;2022-07-01T11:11:31;14.30;99.90
5870;DHT22;2961;47.702;9.410;2022-07-01T11:14:01;14.30;99.90
5870;DHT22;2961;47.702;9.410;2022-07-01T11:16:29;14.30;99.90
5870;DHT22;2961;47.702;9.410;2022-07-01T11:18:56;14.30;99.90
5870;DHT22;2961;47.702;9.410;2022-07-01T11:21:23;14.30;99.90
5870;DHT22;2961;47.702;9.410;2022-07-01T11:23:54;14.30;99.90
5870;DHT22;2961;47.702;9.410;2022-07-01T11:26:24;14.20;99.90
5870;DHT22;2961;47.702;9.410;2022-07-01T11:28:51;14.20;99.90
5870;DHT22;2961;47.702;9.410;2022-07-01T11:31:31;14.30;99.90
5870;DHT22;2961;47.702;9.410;2022-07-01T11:33:58;14.20;99.90
5870;DHT22;2961;47.702;9.410;2022-07-01T11:36:25;14.30;99.90
5870;DHT22;2961;47.702;9.410;2022-07-01T11:39:10;14.40;99.90
5870;DHT22;2961;47.702;9.410;2022-07-01T11:41:53;14.40;99.90
5870;DHT22;2961;47.702;9.410;2022-07-01T11:44:28;14.50;99.90
5870;DHT22;2961;47.702;9.410;2022-07-01T11:46:56;14.60;99.90
5870;DHT22;2961;47.702;9.410;2022-07-01T11:49:23;14.60;99.90
5870;DHT22;2961;47.702;9.410;2022-07-01T11:51:55;14.60;99.90
5870;DHT22;2961;47.702;9.410;2022-07-01T11:54:22;14.60;99.90
5870;DHT22;2961;47.702;9.410;2022-07-01T11:56:49;14.60;99.90
5870;DHT22;2961;47.702;9.410;2022-07-01T11:59:16;14.70;99.90
5870;DHT22;2961;47.702;9.410;2022-07-01T12:01:51;15.00;99.90
5870;DHT22;2961;47.702;9.410;2022-07-01T12:04:20;15.00;99.90
5870;DHT22;2961;47.702;9.410;2022-07-01T12:06:47;15.30;99.90
5870;DHT22;2961;47.702;9.410;2022-07-01T12:09:16;15.60;99.90
5870;DHT22;2961;47.702;9.410;2022-07-01T12:11:47;15.90;99.90
5870;DHT22;2961;47.702;9.410;2022-07-01T12:14:21;16.30;99.90
5870;DHT22;2961;47.702;9.410;2022-07-01T12:16:51;16.50;99.90
5870;DHT22;2961;47.702;9.410;2022-07-01T12:19:20;16.70;99.90
5870;DHT22;2961;47.702;9.410;2022-07-01T12:21:49;16.80;99.90
5870;DHT22;2961;47.702;9.410;2022-07-01T12:24:17;16.90;99.90
5870;DHT22;2961;47.702;9.410;2022-07-01T12:26:52;17.10;99.90
5870;DHT22;2961;47.702;9.410;2022-07-01T12:29:22;17.10;99.90
5870;DHT22;2961;47.702;9.410;2022-07-01T12:31:57;17.30;99.90
5870;DHT22;2961;47.702;9.410;2022-07-01T12:34:36;17.20;99.90
5870;DHT22;2961;47.702;9.410;2022-07-01T12:37:08;17.30;99.90
5870;DHT22;2961;47.702;9.410;2022-07-01T12:39:42;17.30;99.90
5870;DHT22;2961;47.702;9.410;2022-07-01T12:42:20;17.40;99.90
5870;DHT22;2961;47.702;9.410;2022-07-01T12:44:47;17.70;99.90
5870;DHT22;2961;47.702;9.410;2022-07-01T12:47:23;18.10;99.90
5870;DHT22;2961;47.702;9.410;2022-07-01T12:50:15;18.20;99.90
5870;DHT22;2961;47.702;9.410;2022-07-01T12:52:44;18.40;99.90
5870;DHT22;2961;47.702;9.410;2022-07-01T12:55:22;18.50;99.90
5870;DHT22;2961;47.702;9.410;2022-07-01T12:57:50;18.50;99.90
5870;DHT22;2961;47.702;9.410;2022-07-01T13:00:19;18.40;99.90
5870;DHT22;2961;47.702;9.410;2022-07-01T13:02:46;18.40;99.90
5870;DHT22;2961;47.702;9.410;2022-07-01T13:05:15;18.50;99.90
5870;DHT22;2961;47.702;9.410;2022-07-01T13:07:43;18.40;99.90
5870;DHT22;2961;47.702;9.410;2022-07-01T13:10:10;18.40;99.90
5870;DHT22;2961;47.702;9.410;2022-07-01T13:12:37;18.60;99.90
5870;DHT22;2961;47.702;9.410;2022-07-01T13:15:05;18.70;99.90
5870;DHT22;2961;47.702;9.410;2022-07-01T13:17:32;18.60;99.90
5870;DHT22;2961;47.702;9.410;2022-07-01T13:19:58;18.80;99.90
5870;DHT22;2961;47.702;9.410;2022-07-01T13:22:27;18.90;99.90
5870;DHT22;2961;47.702;9.410;2022-07-01T13:24:54;18.90;99.90
5870;DHT22;2961;47.702;9.410;2022-07-01T13:27:20;18.90;99.90
5870;DHT22;2961;47.702;9.410;2022-07-01T13:29:48;18.70;99.90
5870;DHT22;2961;47.702;9.410;2022-07-01T13:32:15;18.60;99.90
5870;DHT22;2961;47.702;9.410;2022-07-01T13:34:42;18.80;99.90
5870;DHT22;2961;47.702;9.410;2022-07-01T13:37:09;19.00;99.90
5870;DHT22;2961;47.702;9.410;2022-07-01T13:39:37;19.10;99.90
5870;DHT22;2961;47.702;9.410;2022-07-01T13:42:04;19.30;99.90
5870;DHT22;2961;47.702;9.410;2022-07-01T13:44:31;19.40;99.90
5870;DHT22;2961;47.702;9.410;2022-07-01T13:46:59;19.50;99.90
5870;DHT22;2961;47.702;9.410;2022-07-01T13:49:25;19.40;99.90
5870;DHT22;2961;47.702;9.410;2022-07-01T13:51:52;19.30;99.90
5870;DHT22;2961;47.702;9.410;2022-07-01T13:54:19;19.10;99.90
5870;DHT22;2961;47.702;9.410;2022-07-01T13:56:47;18.90;99.90
5870;DHT22;2961;47.702;9.410;2022-07-01T13:59:14;18.80;99.90
5870;DHT22;2961;47.702;9.410;2022-07-01T14:01:41;18.90;99.90
5870;DHT22;2961;47.702;9.410;2022-07-01T14:04:09;19.00;99.90
5870;DHT22;2961;47.702;9.410;2022-07-01T14:06:37;19.10;99.90
5870;DHT22;2961;47.702;9.410;2022-07-01T14:09:04;19.00;99.90
5870;DHT22;2961;47.702;9.410;2022-07-01T14:11:31;19.00;99.90
5870;DHT22;2961;47.702;9.410;2022-07-01T14:13:59;19.00;99.90
5870;DHT22;2961;47.702;9.410;2022-07-01T14:16:26;19.10;99.90
5870;DHT22;2961;47.702;9.410;2022-07-01T14:18:56;19.10;99.90
5870;DHT22;2961;47.702;9.410;2022-07-01T14:21:23;19.20;99.90
5870;DHT22;2961;47.702;9.410;2022-07-01T14:23:49;19.30;99.90
5870;DHT22;2961;47.702;9.410;2022-07-01T14:26:16;19.30;99.90
5870;DHT22;2961;47.702;9.410;2022-07-01T14:28:43;19.20;99.90
5870;DHT22;2961;47.702;9.410;2022-07-01T14:31:12;19.20;99.90
5870;DHT22;2961;47.702;9.410;2022-07-01T14:33:38;19.10;99.90
5870;DHT22;2961;47.702;9.410;2022-07-01T14:36:05;19.20;99.90
5870;DHT22;2961;47.702;9.410;2022-07-01T14:38:32;18.90;99.90
5870;DHT22;2961;47.702;9.410;2022-07-01T14:40:59;18.80;99.90
5870;DHT22;2961;47.702;9.410;2022-07-01T14:43:26;18.90;99.90
5870;DHT22;2961;47.702;9.410;2022-07-01T14:45:55;18.90;99.90
5870;DHT22;2961;47.702;9.410;2022-07-01T14:48:23;18.90;99.90
5870;DHT22;2961;47.702;9.410;2022-07-01T14:50:50;18.90;99.90
5870;DHT22;2961;47.702;9.410;2022-07-01T14:53:17;18.90;99.90
5870;DHT22;2961;47.702;9.410;2022-07-01T14:55:44;18.80;99.90
5870;DHT22;2961;47.702;9.410;2022-07-01T14:58:11;18.90;99.90
5870;DHT22;2961;47.702;9.410;2022-07-01T15:00:38;18.90;99.90
5870;DHT22;2961;47.702;9.410;2022-07-01T15:03:05;19.00;99.90
5870;DHT22;2961;47.702;9.410;2022-07-01T15:05:33;19.20;99.90
5870;DHT22;2961;47.702;9.410;2022-07-01T15:08:00;19.40;99.90
5870;DHT22;2961;47.702;9.410;2022-07-01T15:10:27;19.60;99.90
5870;DHT22;2961;47.702;9.410;2022-07-01T15:12:54;19.60;99.90
5870;DHT22;2961;47.702;9.410;2022-07-01T15:15:21;19.70;99.90
5870;DHT22;2961;47.702;9.410;2022-07-01T15:17:48;19.70;99.90
5870;DHT22;2961;47.702;9.410;2022-07-01T15:20:15;19.80;99.90
5870;DHT22;2961;47.702;9.410;2022-07-01T15:22:44;19.90;99.90
5870;DHT22;2961;47.702;9.410;2022-07-01T15:25:11;19.90;99.90
5870;DHT22;2961;47.702;9.410;2022-07-01T15:27:39;20.00;99.90
5870;DHT22;2961;47.702;9.410;2022-07-01T15:30:07;19.80;99.90
5870;DHT22;2961;47.702;9.410;2022-07-01T15:32:35;19.60;99.90
5870;DHT22;2961;47.702;9.410;2022-07-01T15:35:03;19.60;99.90
5870;DHT22;2961;47.702;9.410;2022-07-01T15:37:30;19.60;99.90
5870;DHT22;2961;47.702;9.410;2022-07-01T15:39:58;19.60;99.90
5870;DHT22;2961;47.702;9.410;2022-07-01T15:42:25;19.60;99.90
5870;DHT22;2961;47.702;9.410;2022-07-01T15:44:52;19.60;99.90
5870;DHT22;2961;47.702;9.410;2022-07-01T15:47:19;19.70;99.90
5870;DHT22;2961;47.702;9.410;2022-07-01T15:50:04;19.60;99.90
5870;DHT22;2961;47.702;9.410;2022-07-01T15:52:31;19.60;99.90
5870;DHT22;2961;47.702;9.410;2022-07-01T15:54:59;19.50;99.90
5870;DHT22;2961;47.702;9.410;2022-07-01T15:57:26;19.50;99.90
5870;DHT22;2961;47.702;9.410;2022-07-01T15:59:53;19.60;99.90
5870;DHT22;2961;47.702;9.410;2022-07-01T16:02:21;19.70;99.90
5870;DHT22;2961;47.702;9.410;2022-07-01T16:04:48;19.70;99.90
5870;DHT22;2961;47.702;9.410;2022-07-01T16:07:20;19.70;99.90
5870;DHT22;2961;47.702;9.410;2022-07-01T16:09:51;19.60;99.90